createdAt,value
2019-05-30T00:00:44.877Z,8.70
2019-05-30T00:03:21.090Z,8.60
2019-05-30T00:05:58.327Z,8.60
2019-05-30T00:08:34.707Z,8.50
2019-05-30T00:11:10.839Z,8.40
2019-05-30T00:13:46.999Z,8.30
2019-05-30T00:16:23.227Z,8.20
2019-05-30T00:19:00.766Z,8.10
2019-05-30T00:21:37.125Z,8.00
2019-05-30T00:24:13.334Z,8.00
2019-05-30T00:26:49.494Z,8.00
2019-05-30T00:29:25.715Z,8.00
2019-05-30T00:32:01.961Z,8.00
2019-05-30T00:34:38.164Z,7.90
2019-05-30T00:37:14.332Z,7.90
2019-05-30T00:39:50.454Z,7.90
2019-05-30T00:42:26.704Z,7.90
2019-05-30T00:45:15.566Z,7.90
2019-05-30T00:47:40.650Z,7.90
2019-05-30T00:50:16.922Z,7.90
2019-05-30T00:52:53.164Z,7.80
2019-05-30T00:55:29.409Z,7.80
2019-05-30T00:58:07.318Z,7.80
2019-05-30T01:00:44.389Z,7.70
2019-05-30T01:03:20.745Z,7.60
2019-05-30T01:05:56.986Z,7.60
2019-05-30T01:08:33.136Z,7.50
2019-05-30T01:11:09.325Z,7.50
2019-05-30T01:13:45.528Z,7.50
2019-05-30T01:16:21.834Z,7.50
2019-05-30T01:18:59.023Z,7.60
2019-05-30T01:21:35.284Z,7.60
2019-05-30T01:24:11.532Z,7.80
2019-05-30T01:26:47.663Z,7.80
2019-05-30T01:29:23.844Z,7.90
2019-05-30T01:32:01.617Z,7.90
2019-05-30T01:34:37.847Z,7.90
2019-05-30T01:37:14.054Z,7.90
2019-05-30T01:39:50.224Z,7.90
2019-05-30T01:42:26.431Z,8.00
2019-05-30T01:45:02.707Z,8.00
2019-05-30T01:47:38.876Z,8.00
2019-05-30T01:50:15.545Z,8.00
2019-05-30T01:52:51.895Z,8.00
2019-05-30T01:55:28.071Z,8.00
2019-05-30T01:58:05.050Z,8.00
2019-05-30T02:00:41.632Z,8.00
2019-05-30T02:03:17.764Z,7.90
2019-05-30T02:05:53.939Z,7.90
2019-05-30T02:08:30.169Z,7.90
2019-05-30T02:11:07.419Z,7.80
2019-05-30T02:13:43.757Z,7.80
2019-05-30T02:16:19.968Z,7.80
2019-05-30T02:18:56.219Z,7.80
2019-05-30T02:21:32.350Z,7.80
2019-05-30T02:24:08.614Z,7.80
2019-05-30T02:26:44.767Z,7.80
2019-05-30T02:29:21.004Z,7.90
2019-05-30T02:31:57.256Z,7.90
2019-05-30T02:34:33.458Z,7.90
2019-05-30T02:37:10.784Z,8.00
2019-05-30T02:39:47.384Z,8.00
2019-05-30T02:42:23.599Z,8.00
2019-05-30T02:45:01.373Z,8.00
2019-05-30T02:47:37.704Z,8.00
2019-05-30T02:50:15.570Z,8.10
2019-05-30T02:52:51.772Z,8.10
2019-05-30T02:55:28.047Z,8.10
2019-05-30T02:58:05.986Z,8.00
2019-05-30T03:00:42.193Z,8.00
2019-05-30T03:03:18.324Z,7.90
2019-05-30T03:05:54.901Z,7.90
2019-05-30T03:08:31.227Z,7.90
2019-05-30T03:11:10.279Z,8.00
2019-05-30T03:13:45.390Z,8.00
2019-05-30T03:16:21.625Z,8.00
2019-05-30T03:18:57.934Z,8.00
2019-05-30T03:21:34.181Z,8.00
2019-05-30T03:24:12.384Z,8.00
2019-05-30T03:26:48.183Z,8.00
2019-05-30T03:29:24.385Z,8.00
2019-05-30T03:32:33.489Z,8.00
2019-05-30T03:34:38.733Z,8.00
2019-05-30T03:37:26.943Z,8.00
2019-05-30T03:39:52.789Z,8.10
2019-05-30T03:42:28.995Z,8.00
2019-05-30T03:45:10.892Z,8.10
2019-05-30T03:47:55.087Z,8.10
2019-05-30T03:50:33.185Z,8.10
2019-05-30T03:53:11.507Z,8.20
2019-05-30T03:55:50.688Z,8.30
2019-05-30T03:58:35.564Z,8.40
2019-05-30T04:01:18.643Z,8.60
2019-05-30T04:04:09.171Z,8.70
2019-05-30T04:06:49.351Z,8.80
2019-05-30T04:09:27.763Z,8.90
2019-05-30T04:12:07.784Z,9.00
2019-05-30T04:14:47.707Z,9.20
2019-05-30T04:17:23.878Z,9.30
2019-05-30T04:20:00.028Z,9.40
2019-05-30T04:22:36.270Z,9.50
2019-05-30T04:25:12.620Z,9.70
2019-05-30T04:27:48.934Z,9.90
2019-05-30T04:30:25.111Z,10.00
2019-05-30T04:33:17.330Z,10.00
2019-05-30T04:35:40.699Z,10.20
2019-05-30T04:38:17.278Z,10.30
2019-05-30T04:40:53.885Z,10.50
2019-05-30T04:43:30.173Z,10.60
2019-05-30T04:46:06.358Z,10.80
2019-05-30T04:48:42.567Z,11.00
2019-05-30T04:51:21.023Z,11.10
2019-05-30T04:53:56.584Z,11.30
2019-05-30T04:56:32.822Z,11.50
2019-05-30T04:59:10.781Z,11.60
2019-05-30T05:01:46.842Z,11.80
2019-05-30T05:04:22.990Z,11.90
2019-05-30T05:06:59.159Z,12.10
2019-05-30T05:09:35.259Z,12.20
2019-05-30T05:12:12.036Z,12.30
2019-05-30T05:14:48.180Z,12.50
2019-05-30T05:17:24.457Z,12.90
2019-05-30T05:20:00.628Z,13.10
2019-05-30T05:22:36.696Z,13.50
2019-05-30T05:25:13.302Z,13.80
2019-05-30T05:27:49.614Z,14.10
2019-05-30T05:30:25.970Z,14.30
2019-05-30T05:33:03.802Z,14.50
2019-05-30T05:35:40.011Z,14.60
2019-05-30T05:38:16.242Z,14.50
2019-05-30T05:40:52.463Z,14.60
2019-05-30T05:43:28.760Z,14.60
2019-05-30T05:46:04.999Z,14.50
2019-05-30T05:48:41.246Z,14.70
2019-05-30T05:51:18.591Z,15.00
2019-05-30T05:53:54.991Z,15.10
2019-05-30T05:56:31.228Z,15.20
2019-05-30T05:59:07.445Z,15.20
2019-05-30T06:01:43.696Z,15.30
2019-05-30T06:04:21.013Z,15.20
2019-05-30T06:06:57.377Z,15.40
2019-05-30T06:09:33.594Z,15.70
2019-05-30T06:12:09.761Z,15.60
2019-05-30T06:14:45.900Z,15.70
2019-05-30T06:17:23.112Z,16.00
2019-05-30T06:19:59.462Z,16.20
2019-05-30T06:22:35.721Z,16.40
2019-05-30T06:25:11.973Z,16.50
2019-05-30T06:27:48.221Z,16.70
2019-05-30T06:30:24.531Z,16.90
2019-05-30T06:33:00.836Z,17.30
2019-05-30T06:35:37.053Z,17.50
2019-05-30T06:38:13.372Z,17.20
2019-05-30T06:40:49.607Z,17.00
2019-05-30T06:43:26.151Z,16.60
2019-05-30T06:46:02.464Z,16.60
2019-05-30T06:48:38.781Z,16.40
2019-05-30T06:51:15.006Z,16.70
2019-05-30T06:53:51.250Z,17.30
2019-05-30T06:56:27.543Z,17.90
2019-05-30T06:59:04.511Z,18.30
2019-05-30T07:01:40.761Z,18.40
2019-05-30T07:04:17.533Z,18.50
2019-05-30T07:06:54.146Z,18.50
2019-05-30T07:09:30.961Z,18.40
2019-05-30T07:12:07.348Z,18.60
2019-05-30T07:14:43.512Z,18.50
2019-05-30T07:17:19.763Z,18.60
2019-05-30T07:19:58.045Z,18.80
2019-05-30T07:22:34.017Z,18.90
2019-05-30T07:25:10.567Z,19.20
2019-05-30T07:27:46.741Z,19.60
2019-05-30T07:30:23.792Z,19.70
2019-05-30T07:33:00.161Z,20.00
2019-05-30T07:35:36.391Z,20.10
2019-05-30T07:38:12.628Z,20.00
2019-05-30T07:40:48.698Z,20.30
2019-05-30T07:43:26.537Z,20.30
2019-05-30T07:46:02.735Z,20.50
2019-05-30T07:48:38.985Z,20.80
2019-05-30T07:51:15.181Z,20.90
2019-05-30T07:53:51.365Z,21.00
2019-05-30T07:56:27.501Z,21.30
2019-05-30T07:59:03.801Z,21.60
2019-05-30T08:01:40.033Z,21.80
2019-05-30T08:04:16.294Z,22.10
2019-05-30T08:06:52.504Z,22.20
2019-05-30T08:09:29.263Z,22.00
2019-05-30T08:12:05.585Z,22.10
2019-05-30T08:14:41.833Z,22.20
2019-05-30T08:17:17.897Z,22.20
2019-05-30T08:19:54.074Z,22.20
2019-05-30T08:22:30.299Z,22.10
2019-05-30T08:25:08.209Z,22.30
2019-05-30T08:27:44.363Z,22.30
2019-05-30T08:30:20.817Z,22.50
2019-05-30T08:32:57.324Z,22.30
2019-05-30T08:35:43.579Z,21.90
2019-05-30T08:38:11.413Z,21.90
2019-05-30T08:40:47.898Z,21.50
2019-05-30T08:43:24.106Z,21.60
2019-05-30T08:46:03.026Z,21.40
2019-05-30T08:48:40.302Z,21.60
2019-05-30T08:51:16.636Z,21.60
2019-05-30T08:53:52.874Z,21.40
2019-05-30T08:56:30.195Z,21.80
2019-05-30T08:59:06.697Z,21.70
2019-05-30T09:01:43.933Z,21.80
2019-05-30T09:04:20.309Z,22.00
2019-05-30T09:06:56.557Z,22.20
2019-05-30T09:09:32.802Z,22.40
2019-05-30T09:12:08.866Z,22.60
2019-05-30T09:14:45.444Z,22.50
2019-05-30T09:17:21.986Z,23.10
2019-05-30T09:19:58.167Z,23.10
2019-05-30T09:22:34.408Z,23.00
2019-05-30T09:25:11.868Z,22.80
2019-05-30T09:27:48.384Z,22.50
2019-05-30T09:30:24.829Z,22.60
2019-05-30T09:33:01.048Z,22.60
2019-05-30T09:35:38.502Z,22.30
2019-05-30T09:38:15.137Z,22.50
2019-05-30T09:40:51.274Z,22.60
2019-05-30T09:43:27.473Z,22.30
2019-05-30T09:46:03.716Z,22.10
2019-05-30T09:48:40.209Z,21.80
2019-05-30T09:51:17.715Z,21.50
2019-05-30T09:53:53.964Z,21.80
2019-05-30T09:56:30.199Z,22.00
2019-05-30T09:59:06.513Z,21.80
2019-05-30T10:01:44.260Z,21.10
2019-05-30T10:04:20.605Z,20.50
2019-05-30T10:06:56.823Z,20.00
2019-05-30T10:09:32.993Z,19.90
2019-05-30T10:12:09.129Z,20.10
2019-05-30T10:14:46.780Z,20.50
2019-05-30T10:17:23.144Z,20.40
2019-05-30T10:19:59.324Z,20.40
2019-05-30T10:22:35.731Z,20.30
2019-05-30T10:25:12.197Z,20.20
2019-05-30T10:27:50.392Z,20.10
2019-05-30T10:30:26.797Z,20.10
2019-05-30T10:33:03.196Z,20.10
2019-05-30T10:35:39.621Z,20.10
2019-05-30T10:38:15.856Z,20.30
2019-05-30T10:40:52.382Z,20.50
2019-05-30T10:43:28.667Z,20.70
2019-05-30T10:46:04.937Z,20.90
2019-05-30T10:48:41.150Z,21.10
2019-05-30T10:51:17.398Z,21.20
2019-05-30T10:53:54.083Z,20.90
2019-05-30T10:56:30.466Z,20.60
2019-05-30T10:59:06.670Z,20.30
2019-05-30T11:01:42.913Z,20.20
2019-05-30T11:04:19.129Z,20.30
2019-05-30T11:07:11.464Z,20.30
2019-05-30T11:09:48.739Z,20.10
2019-05-30T11:12:24.945Z,19.60
2019-05-30T11:15:01.130Z,19.30
2019-05-30T11:17:37.381Z,19.20
2019-05-30T11:20:13.939Z,19.30
2019-05-30T11:22:50.192Z,19.20
2019-05-30T11:25:26.448Z,19.20
2019-05-30T11:28:02.669Z,19.00
2019-05-30T11:30:38.902Z,19.00
2019-05-30T11:33:15.110Z,18.80
2019-05-30T11:35:52.993Z,18.60
2019-05-30T11:38:29.318Z,18.40
2019-05-30T11:41:05.598Z,18.30
2019-05-30T11:43:41.823Z,18.30
2019-05-30T11:46:18.078Z,18.20
2019-05-30T11:48:54.306Z,18.20
2019-05-30T11:51:30.487Z,18.10
2019-05-30T11:54:06.697Z,18.10
2019-05-30T11:56:43.067Z,18.20
2019-05-30T11:59:19.305Z,18.20
2019-05-30T12:01:56.390Z,18.40
2019-05-30T12:04:32.833Z,18.60
2019-05-30T12:07:09.096Z,18.70
2019-05-30T12:09:45.305Z,18.70
2019-05-30T12:12:21.550Z,18.60
2019-05-30T12:14:59.490Z,18.50
2019-05-30T12:17:35.743Z,18.70
2019-05-30T12:20:12.362Z,18.50
2019-05-30T12:22:48.600Z,18.60
2019-05-30T12:25:24.797Z,18.60
2019-05-30T12:28:03.735Z,18.60
2019-05-30T12:30:54.460Z,18.70
2019-05-30T12:33:16.753Z,18.50
2019-05-30T12:35:54.317Z,18.50
2019-05-30T12:38:30.540Z,18.50
2019-05-30T12:41:06.784Z,18.60
2019-05-30T12:43:43.007Z,18.70
2019-05-30T12:46:19.261Z,18.70
2019-05-30T12:48:55.467Z,18.60
2019-05-30T12:51:31.636Z,18.60
2019-05-30T12:54:07.776Z,18.60
2019-05-30T12:56:44.024Z,18.70
2019-05-30T12:59:20.164Z,18.60
2019-05-30T13:01:56.818Z,18.60
2019-05-30T13:04:33.052Z,18.70
2019-05-30T13:07:09.238Z,18.70
2019-05-30T13:09:45.449Z,18.60
2019-05-30T13:12:21.710Z,18.60
2019-05-30T13:14:57.840Z,18.50
2019-05-30T13:17:34.091Z,18.40
2019-05-30T13:20:12.154Z,18.30
2019-05-30T13:22:48.361Z,18.40
2019-05-30T13:25:25.036Z,18.60
2019-05-30T13:28:04.852Z,18.60
2019-05-30T13:30:39.131Z,18.80
2019-05-30T13:33:15.356Z,18.90
2019-05-30T13:35:51.620Z,18.80
2019-05-30T13:38:27.767Z,18.90
2019-05-30T13:41:04.029Z,19.00
2019-05-30T13:43:40.246Z,19.00
2019-05-30T13:46:16.514Z,19.20
2019-05-30T13:48:52.775Z,19.50
2019-05-30T13:51:29.029Z,19.70
2019-05-30T13:54:05.368Z,19.90
2019-05-30T13:56:41.501Z,20.30
2019-05-30T13:59:17.674Z,20.20
2019-05-30T14:01:53.853Z,20.10
2019-05-30T14:04:30.057Z,20.30
2019-05-30T14:07:06.513Z,20.10
2019-05-30T14:09:42.746Z,20.00
2019-05-30T14:12:19.119Z,20.10
2019-05-30T14:14:55.330Z,20.10
2019-05-30T14:17:31.581Z,20.00
2019-05-30T14:20:09.049Z,20.20
2019-05-30T14:22:45.354Z,20.40
2019-05-30T14:25:21.563Z,20.30
2019-05-30T14:27:57.742Z,20.30
2019-05-30T14:30:34.083Z,20.40
2019-05-30T14:33:10.428Z,20.40
2019-05-30T14:35:46.631Z,20.30
2019-05-30T14:38:22.905Z,20.10
2019-05-30T14:40:59.156Z,20.00
2019-05-30T14:43:35.406Z,19.90
2019-05-30T14:46:12.442Z,20.00
2019-05-30T14:48:48.636Z,20.10
2019-05-30T14:51:24.884Z,19.90
2019-05-30T14:54:01.064Z,19.80
2019-05-30T14:56:37.471Z,19.70
2019-05-30T14:59:13.663Z,19.70
2019-05-30T15:01:49.932Z,19.50
2019-05-30T15:04:26.088Z,19.50
2019-05-30T15:07:02.685Z,19.40
2019-05-30T15:09:42.329Z,19.40
2019-05-30T15:12:17.020Z,19.60
2019-05-30T15:14:53.259Z,19.50
2019-05-30T15:17:29.509Z,19.60
2019-05-30T15:20:10.016Z,19.60
2019-05-30T15:22:45.978Z,19.60
2019-05-30T15:25:22.390Z,19.50
2019-05-30T15:27:58.711Z,19.40
2019-05-30T15:30:34.916Z,19.40
2019-05-30T15:33:12.547Z,19.50
2019-05-30T15:35:48.902Z,19.60
2019-05-30T15:38:25.155Z,19.70
2019-05-30T15:41:01.367Z,19.70
2019-05-30T15:43:37.629Z,19.80
2019-05-30T15:46:13.968Z,19.80
2019-05-30T15:48:50.196Z,19.70
2019-05-30T15:51:26.454Z,19.60
2019-05-30T15:54:02.718Z,19.50
2019-05-30T15:56:38.937Z,19.50
2019-05-30T15:59:15.818Z,19.30
2019-05-30T16:01:52.121Z,19.20
2019-05-30T16:04:28.299Z,19.10
2019-05-30T16:07:04.555Z,18.90
2019-05-30T16:09:47.151Z,19.00
2019-05-30T16:12:19.380Z,19.00
2019-05-30T16:14:55.622Z,19.00
2019-05-30T16:17:31.876Z,19.00
2019-05-30T16:20:10.284Z,19.20
2019-05-30T16:22:46.540Z,19.20
2019-05-30T16:25:22.743Z,19.20
2019-05-30T16:27:58.992Z,19.20
2019-05-30T16:30:35.204Z,19.10
2019-05-30T16:33:11.471Z,19.20
2019-05-30T16:35:47.686Z,19.00
2019-05-30T16:38:23.941Z,19.00
2019-05-30T16:41:00.155Z,19.00
2019-05-30T16:43:36.449Z,18.90
2019-05-30T16:46:12.668Z,18.80
2019-05-30T16:48:48.920Z,18.70
2019-05-30T16:51:25.142Z,18.70
2019-05-30T16:54:01.553Z,18.60
2019-05-30T16:56:37.927Z,18.60
2019-05-30T16:59:14.518Z,18.50
2019-05-30T17:01:57.682Z,18.50
2019-05-30T17:04:28.647Z,18.40
2019-05-30T17:07:04.861Z,18.40
2019-05-30T17:09:41.194Z,18.40
2019-05-30T17:12:17.512Z,18.40
2019-05-30T17:14:54.308Z,18.30
2019-05-30T17:17:30.517Z,18.30
2019-05-30T17:20:08.945Z,18.20
2019-05-30T17:22:45.186Z,18.20
2019-05-30T17:25:21.335Z,18.10
2019-05-30T17:27:57.613Z,18.10
2019-05-30T17:30:33.842Z,18.10
2019-05-30T17:33:10.108Z,18.10
2019-05-30T17:35:46.659Z,18.10
2019-05-30T17:38:22.912Z,18.00
2019-05-30T17:40:59.140Z,17.90
2019-05-30T17:43:35.390Z,17.90
2019-05-30T17:46:11.544Z,17.90
2019-05-30T17:48:47.788Z,17.90
2019-05-30T17:51:24.025Z,17.80
2019-05-30T17:54:00.276Z,17.80
2019-05-30T17:56:36.417Z,17.80
2019-05-30T17:59:12.665Z,17.90
2019-05-30T18:01:48.971Z,17.70
2019-05-30T18:04:26.473Z,17.70
2019-05-30T18:07:02.745Z,17.70
2019-05-30T18:09:38.982Z,17.70
2019-05-30T18:12:15.263Z,17.70
2019-05-30T18:14:51.448Z,17.70
2019-05-30T18:17:27.603Z,17.70
2019-05-30T18:20:05.740Z,17.70
2019-05-30T18:22:41.956Z,17.70
2019-05-30T18:25:18.703Z,17.70
2019-05-30T18:27:54.943Z,17.70
2019-05-30T18:30:42.481Z,17.60
2019-05-30T18:33:18.724Z,17.60
2019-05-30T18:35:54.950Z,17.50
2019-05-30T18:38:32.538Z,17.50
2019-05-30T18:41:11.703Z,17.50
2019-05-30T18:43:46.803Z,17.50
2019-05-30T18:46:23.095Z,17.50
2019-05-30T18:48:59.209Z,17.40
2019-05-30T18:51:36.607Z,17.40
2019-05-30T18:54:12.909Z,17.30
2019-05-30T18:56:49.069Z,17.30
2019-05-30T18:59:25.239Z,17.30
2019-05-30T19:02:01.451Z,17.20
2019-05-30T19:04:37.704Z,17.20
2019-05-30T19:07:13.842Z,17.20
2019-05-30T19:09:50.025Z,17.10
2019-05-30T19:12:26.230Z,17.10
2019-05-30T19:15:02.727Z,17.10
2019-05-30T19:17:39.110Z,17.00
2019-05-30T19:20:15.879Z,17.00
2019-05-30T19:22:52.107Z,16.90
2019-05-30T19:25:29.414Z,16.90
2019-05-30T19:28:05.668Z,16.80
2019-05-30T19:30:41.836Z,16.80
2019-05-30T19:33:20.656Z,16.80
2019-05-30T19:35:55.857Z,16.80
2019-05-30T19:38:33.261Z,16.70
2019-05-30T19:41:09.688Z,16.70
2019-05-30T19:43:45.912Z,16.70
2019-05-30T19:46:22.105Z,16.70
2019-05-30T19:48:58.305Z,16.70
2019-05-30T19:51:35.051Z,16.60
2019-05-30T19:54:11.403Z,16.60
2019-05-30T19:56:47.544Z,16.50
2019-05-30T19:59:23.800Z,16.50
2019-05-30T20:02:00.007Z,16.50
2019-05-30T20:04:36.407Z,16.60
2019-05-30T20:07:12.611Z,16.60
2019-05-30T20:10:00.788Z,16.60
2019-05-30T20:12:26.696Z,16.60
2019-05-30T20:15:03.124Z,16.50
2019-05-30T20:17:39.816Z,16.50
2019-05-30T20:20:16.532Z,16.50
2019-05-30T20:22:52.741Z,16.50
2019-05-30T20:25:28.920Z,16.50
2019-05-30T20:28:05.878Z,16.40
2019-05-30T20:30:43.229Z,16.40
2019-05-30T20:33:19.546Z,16.40
2019-05-30T20:35:55.796Z,16.40
2019-05-30T20:38:31.931Z,16.40
2019-05-30T20:41:08.191Z,16.40
2019-05-30T20:43:44.400Z,16.40
2019-05-30T20:46:23.512Z,16.40
2019-05-30T20:48:58.492Z,16.40
2019-05-30T20:51:35.609Z,16.30
2019-05-30T20:54:12.533Z,16.30
2019-05-30T20:56:51.174Z,16.30
2019-05-30T20:59:26.623Z,16.30
2019-05-30T21:02:03.172Z,16.20
2019-05-30T21:04:39.316Z,16.10
2019-05-30T21:07:16.163Z,16.00
2019-05-30T21:09:53.340Z,16.00
2019-05-30T21:12:37.755Z,15.90
2019-05-30T21:15:09.537Z,15.80
2019-05-30T21:17:46.561Z,15.70
2019-05-30T21:20:22.798Z,15.60
2019-05-30T21:22:59.037Z,15.60
2019-05-30T21:25:37.087Z,15.50
2019-05-30T21:28:13.230Z,15.40
2019-05-30T21:30:49.341Z,15.30
2019-05-30T21:33:25.635Z,15.20
2019-05-30T21:36:02.014Z,15.20
2019-05-30T21:38:38.199Z,15.10
2019-05-30T21:41:14.417Z,15.10
2019-05-30T21:43:50.636Z,15.00
2019-05-30T21:48:58.081Z,15.00
2019-05-30T21:51:34.213Z,14.90
2019-05-30T21:54:10.379Z,15.00
2019-05-30T21:56:46.523Z,15.00
2019-05-30T21:59:22.776Z,15.10
2019-05-30T22:01:58.979Z,15.20
2019-05-30T22:04:35.277Z,15.20
2019-05-30T22:07:11.342Z,15.20
2019-05-30T22:09:47.574Z,15.20
2019-05-30T22:12:23.790Z,15.20
2019-05-30T22:15:00.031Z,15.10
2019-05-30T22:17:36.177Z,15.00
2019-05-30T22:20:12.345Z,15.00
2019-05-30T22:22:48.503Z,14.90
2019-05-30T22:25:24.665Z,14.80
2019-05-30T22:28:00.804Z,14.70
2019-05-30T22:30:36.969Z,14.70
2019-05-30T22:33:13.036Z,14.60
2019-05-30T22:35:49.317Z,14.60
2019-05-30T22:38:25.523Z,14.60
2019-05-30T22:41:01.682Z,14.50
2019-05-30T22:43:37.878Z,14.50
2019-05-30T22:46:14.093Z,14.50
2019-05-30T22:48:50.534Z,14.40
2019-05-30T22:51:27.605Z,14.40
2019-05-30T22:54:03.980Z,14.40
2019-05-30T22:56:40.217Z,14.30
2019-05-30T22:59:16.355Z,14.30
2019-05-30T23:01:53.715Z,14.20
2019-05-30T23:04:29.915Z,14.20
2019-05-30T23:07:06.456Z,14.10
2019-05-30T23:09:43.039Z,14.00
2019-05-30T23:12:19.202Z,14.00
2019-05-30T23:14:56.307Z,14.10
2019-05-30T23:17:32.562Z,14.10
2019-05-30T23:20:09.105Z,14.10
2019-05-30T23:22:45.222Z,14.10
2019-05-30T23:25:21.443Z,14.10
2019-05-30T23:27:57.677Z,14.10
2019-05-30T23:30:33.807Z,14.10
2019-05-30T23:33:10.058Z,14.10
2019-05-30T23:35:46.268Z,14.10
2019-05-30T23:38:22.552Z,14.10
2019-05-30T23:40:59.217Z,14.20
2019-05-30T23:43:35.578Z,14.20
2019-05-30T23:46:11.756Z,14.20
2019-05-30T23:48:47.906Z,14.20
2019-05-30T23:51:24.147Z,14.10
2019-05-30T23:54:00.564Z,14.10
2019-05-30T23:56:36.839Z,14.00
2019-05-30T23:59:13.060Z,14.00
